createdAt,value
2019-05-03T00:02:32.622Z,18.37
2019-05-03T00:05:28.116Z,17.77
2019-05-03T00:08:06.388Z,16.67
2019-05-03T00:10:37.650Z,17.40
2019-05-03T00:13:07.523Z,17.37
2019-05-03T00:16:14.697Z,17.00
2019-05-03T00:18:44.719Z,17.80
2019-05-03T00:21:14.295Z,17.10
2019-05-03T00:23:43.919Z,16.80
2019-05-03T00:26:13.441Z,17.00
2019-05-03T00:28:42.907Z,15.50
2019-05-03T00:31:12.598Z,16.20
2019-05-03T00:33:44.602Z,16.10
2019-05-03T00:36:33.204Z,15.77
2019-05-03T00:39:37.350Z,15.73
2019-05-03T00:42:07.154Z,15.37
2019-05-03T00:44:37.347Z,16.80
2019-05-03T00:47:06.924Z,15.87
2019-05-03T00:49:36.385Z,16.63
2019-05-03T00:52:05.960Z,16.57
2019-05-03T00:54:35.475Z,16.80
2019-05-03T00:57:06.664Z,16.87
2019-05-03T00:59:36.512Z,16.07
2019-05-03T01:02:06.311Z,16.83
2019-05-03T01:04:37.431Z,17.97
2019-05-03T01:07:06.998Z,15.47
2019-05-03T01:09:37.981Z,15.90
2019-05-03T01:12:07.620Z,15.30
2019-05-03T01:14:38.325Z,16.43
2019-05-03T01:17:09.363Z,15.10
2019-05-03T01:19:39.215Z,14.50
2019-05-03T01:22:08.791Z,14.63
2019-05-03T01:24:38.366Z,13.77
2019-05-03T01:27:07.923Z,13.47
2019-05-03T01:29:37.493Z,14.13
2019-05-03T01:32:08.496Z,12.20
2019-05-03T01:34:38.218Z,13.70
2019-05-03T01:37:07.757Z,16.47
2019-05-03T01:39:37.639Z,12.10
2019-05-03T01:42:07.190Z,12.90
2019-05-03T01:44:38.210Z,13.13
2019-05-03T01:47:11.615Z,13.43
2019-05-03T01:49:54.181Z,12.50
2019-05-03T01:52:27.774Z,13.17
2019-05-03T01:54:57.265Z,13.03
2019-05-03T01:57:27.124Z,15.17
2019-05-03T01:59:56.699Z,12.60
2019-05-03T02:02:52.494Z,12.80
2019-05-03T02:05:42.667Z,11.77
2019-05-03T02:08:13.773Z,13.70
2019-05-03T02:10:43.729Z,10.07
2019-05-03T02:13:13.380Z,9.67
2019-05-03T02:15:44.198Z,10.20
2019-05-03T02:18:15.141Z,8.60
2019-05-03T02:20:44.808Z,8.17
2019-05-03T02:23:14.364Z,8.23
2019-05-03T02:25:55.677Z,7.47
2019-05-03T02:28:15.329Z,7.00
2019-05-03T02:30:44.881Z,8.07
2019-05-03T02:33:14.734Z,8.53
2019-05-03T02:35:44.207Z,7.80
2019-05-03T02:38:14.606Z,9.07
2019-05-03T02:40:44.484Z,9.23
2019-05-03T02:43:36.079Z,9.90
2019-05-03T02:46:25.315Z,8.27
2019-05-03T02:49:06.535Z,8.80
2019-05-03T02:51:36.286Z,9.47
2019-05-03T02:54:05.814Z,8.93
2019-05-03T02:56:36.053Z,10.90
2019-05-03T02:59:06.352Z,9.57
2019-05-03T03:01:36.403Z,9.47
2019-05-03T03:04:06.078Z,10.17
2019-05-03T03:06:37.239Z,9.70
2019-05-03T03:09:06.929Z,9.80
2019-05-03T03:11:39.326Z,8.60
2019-05-03T03:14:10.659Z,9.57
2019-05-03T03:16:41.821Z,8.67
2019-05-03T03:19:15.808Z,10.13
2019-05-03T03:21:46.914Z,11.43
2019-05-03T03:24:17.864Z,9.73
2019-05-03T03:26:47.721Z,10.93
2019-05-03T03:29:19.129Z,11.33
2019-05-03T03:32:10.176Z,11.90
2019-05-03T03:34:48.083Z,11.10
2019-05-03T03:37:15.571Z,9.70
2019-05-03T03:39:45.743Z,10.77
2019-05-03T03:42:16.312Z,12.60
2019-05-03T03:44:47.653Z,14.40
2019-05-03T03:47:17.384Z,14.37
2019-05-03T03:49:48.407Z,11.00
2019-05-03T03:52:19.710Z,10.70
2019-05-03T03:54:50.157Z,11.73
2019-05-03T03:57:20.177Z,14.43
2019-05-03T03:59:50.222Z,10.77
2019-05-03T04:02:20.082Z,10.63
2019-05-03T04:04:49.974Z,11.93
2019-05-03T04:07:19.933Z,13.90
2019-05-03T04:09:50.210Z,12.83
2019-05-03T04:12:21.873Z,12.03
2019-05-03T04:15:05.691Z,12.67
2019-05-03T04:17:57.027Z,13.87
2019-05-03T04:20:29.960Z,12.70
2019-05-03T04:22:59.540Z,14.13
2019-05-03T04:25:29.278Z,15.20
2019-05-03T04:28:00.584Z,13.73
2019-05-03T04:30:30.284Z,13.97
2019-05-03T04:33:00.428Z,14.77
2019-05-03T04:35:29.984Z,17.63
2019-05-03T04:37:59.540Z,13.70
2019-05-03T04:40:29.560Z,14.37
2019-05-03T04:42:59.365Z,16.40
2019-05-03T04:45:29.041Z,14.30
2019-05-03T04:47:58.675Z,15.77
2019-05-03T04:50:28.236Z,14.47
2019-05-03T04:52:58.087Z,13.67
2019-05-03T04:55:28.028Z,14.37
2019-05-03T04:57:57.862Z,18.30
2019-05-03T05:00:27.424Z,14.10
2019-05-03T05:02:57.032Z,17.47
2019-05-03T05:05:26.973Z,16.77
2019-05-03T05:07:56.497Z,13.33
2019-05-03T05:10:26.470Z,10.53
2019-05-03T05:12:56.083Z,11.53
2019-05-03T05:15:26.329Z,8.10
2019-05-03T05:18:18.541Z,11.87
2019-05-03T05:20:52.602Z,9.73
2019-05-03T05:23:22.362Z,10.10
2019-05-03T05:25:58.100Z,10.57
2019-05-03T05:28:40.745Z,10.43
2019-05-03T05:31:25.309Z,11.30
2019-05-03T05:33:57.234Z,11.57
2019-05-03T05:36:26.791Z,10.17
2019-05-03T05:38:56.348Z,9.80
2019-05-03T05:41:26.050Z,10.13
2019-05-03T05:43:58.866Z,8.93
2019-05-03T05:46:32.773Z,10.27
2019-05-03T05:49:04.336Z,10.90
2019-05-03T05:51:35.305Z,10.50
2019-05-03T05:54:05.275Z,13.93
2019-05-03T05:57:08.488Z,14.50
2019-05-03T05:59:58.077Z,16.27
2019-05-03T06:02:28.001Z,15.17
2019-05-03T06:04:57.895Z,12.27
2019-05-03T06:07:44.328Z,11.83
2019-05-03T06:10:34.797Z,12.07
2019-05-03T06:13:12.313Z,9.60
2019-05-03T06:16:07.374Z,11.03
2019-05-03T06:18:56.474Z,12.03
2019-05-03T06:21:35.309Z,8.07
2019-05-03T06:24:09.976Z,11.60
2019-05-03T06:27:08.076Z,10.87
2019-05-03T06:29:37.871Z,9.57
2019-05-03T06:32:16.214Z,11.23
2019-05-03T06:34:46.105Z,7.83
2019-05-03T06:37:17.390Z,12.03
2019-05-03T06:39:46.902Z,8.20
2019-05-03T06:42:19.337Z,13.57
2019-05-03T06:44:47.853Z,8.00
2019-05-03T06:47:17.389Z,9.67
2019-05-03T06:49:48.539Z,6.60
2019-05-03T06:52:19.678Z,8.50
2019-05-03T06:54:52.212Z,8.40
2019-05-03T06:57:21.948Z,10.50
2019-05-03T07:00:10.694Z,6.70
2019-05-03T07:02:57.380Z,10.73
2019-05-03T07:05:35.335Z,11.50
2019-05-03T07:08:25.342Z,10.70
2019-05-03T07:10:58.024Z,9.10
2019-05-03T07:13:27.633Z,8.13
2019-05-03T07:15:57.117Z,7.13
2019-05-03T07:18:26.993Z,9.13
2019-05-03T07:20:57.626Z,7.77
2019-05-03T07:23:27.159Z,7.87
2019-05-03T07:25:57.023Z,7.20
2019-05-03T07:28:26.489Z,6.67
2019-05-03T07:30:56.357Z,10.63
2019-05-03T07:33:29.222Z,9.63
2019-05-03T07:35:59.238Z,8.50
2019-05-03T07:38:28.758Z,11.40
2019-05-03T07:40:58.314Z,11.45
2019-05-03T07:43:27.796Z,9.47
2019-05-03T07:45:57.942Z,11.70
2019-05-03T07:48:29.211Z,7.73
2019-05-03T07:50:58.844Z,6.23
2019-05-03T07:53:28.373Z,8.70
2019-05-03T07:56:08.372Z,8.65
2019-05-03T07:58:38.637Z,9.50
2019-05-03T08:01:14.834Z,5.40
2019-05-03T08:03:45.134Z,6.55
2019-05-03T08:06:15.245Z,5.28
2019-05-03T08:08:45.487Z,8.23
2019-05-03T08:11:15.125Z,5.10
2019-05-03T08:13:45.861Z,5.37
2019-05-03T08:16:16.108Z,6.92
2019-05-03T08:18:45.865Z,8.38
2019-05-03T08:21:15.390Z,6.72
2019-05-03T08:23:45.353Z,6.90
2019-05-03T08:26:15.540Z,8.00
2019-05-03T08:28:45.105Z,6.45
2019-05-03T08:31:35.386Z,5.30
2019-05-03T08:34:22.793Z,6.30
2019-05-03T08:36:57.845Z,6.50
2019-05-03T08:39:27.721Z,4.42
2019-05-03T08:42:02.092Z,7.37
2019-05-03T08:44:31.577Z,7.80
2019-05-03T08:47:01.305Z,7.22
2019-05-03T08:49:31.076Z,3.27
2019-05-03T08:52:00.690Z,6.75
2019-05-03T08:54:31.350Z,4.15
2019-05-03T08:57:01.827Z,4.35
2019-05-03T08:59:32.721Z,5.00
2019-05-03T09:02:03.537Z,6.12
2019-05-03T09:04:37.795Z,5.20
2019-05-03T09:07:05.633Z,5.03
2019-05-03T09:09:59.341Z,4.80
2019-05-03T09:12:48.052Z,5.90
2019-05-03T09:15:17.664Z,5.95
2019-05-03T09:17:47.108Z,4.85
2019-05-03T09:20:19.926Z,3.80
2019-05-03T09:22:49.501Z,5.60
2019-05-03T09:25:19.028Z,3.80
2019-05-03T09:27:48.574Z,7.03
2019-05-03T09:30:18.477Z,5.95
2019-05-03T09:32:47.951Z,4.87
2019-05-03T09:35:29.608Z,7.85
2019-05-03T09:37:49.655Z,6.85
2019-05-03T09:40:19.422Z,4.53
2019-05-03T09:42:48.988Z,7.53
2019-05-03T09:45:18.545Z,5.42
2019-05-03T09:47:48.367Z,4.60
2019-05-03T09:50:18.303Z,7.25
2019-05-03T09:52:47.831Z,5.90
2019-05-03T09:55:25.240Z,6.60
2019-05-03T09:57:55.498Z,5.90
2019-05-03T10:00:25.539Z,6.28
2019-05-03T10:02:55.122Z,7.25
2019-05-03T10:05:25.522Z,4.95
2019-05-03T10:07:55.263Z,4.30
2019-05-03T10:10:25.198Z,4.85
2019-05-03T10:12:55.197Z,5.05
2019-05-03T10:15:33.536Z,4.72
2019-05-03T10:18:10.636Z,5.78
2019-05-03T10:20:36.460Z,3.62
2019-05-03T10:23:19.618Z,4.62
2019-05-03T10:25:49.466Z,3.85
2019-05-03T10:28:18.939Z,4.78
2019-05-03T10:30:48.837Z,5.53
2019-05-03T10:33:26.091Z,11.75
2019-05-03T10:35:54.860Z,5.87
2019-05-03T10:38:24.706Z,5.70
2019-05-03T10:40:55.025Z,5.25
2019-05-03T10:43:24.908Z,4.58
2019-05-03T10:45:55.806Z,5.87
2019-05-03T10:48:25.482Z,6.28
2019-05-03T10:50:56.427Z,5.78
2019-05-03T10:53:31.329Z,5.30
2019-05-03T10:56:24.596Z,5.22
2019-05-03T10:58:58.943Z,6.47
2019-05-03T11:01:46.332Z,6.97
2019-05-03T11:04:15.873Z,6.58
2019-05-03T11:06:45.841Z,5.80
2019-05-03T11:09:15.582Z,4.50
2019-05-03T11:11:45.523Z,4.37
2019-05-03T11:14:15.494Z,2.90
2019-05-03T11:16:46.104Z,4.10
2019-05-03T11:19:15.933Z,6.20
2019-05-03T11:21:45.672Z,5.58
2019-05-03T11:24:15.230Z,6.62
2019-05-03T11:26:46.281Z,4.28
2019-05-03T11:29:16.053Z,5.55
2019-05-03T11:32:08.305Z,4.33
2019-05-03T11:34:44.785Z,5.15
2019-05-03T11:37:51.338Z,6.62
2019-05-03T11:40:20.957Z,5.67
2019-05-03T11:42:51.381Z,5.53
2019-05-03T11:45:20.947Z,6.10
2019-05-03T11:47:50.492Z,3.85
2019-05-03T11:50:21.109Z,5.20
2019-05-03T11:52:51.070Z,6.45
2019-05-03T11:55:20.995Z,5.80
2019-05-03T11:57:51.891Z,6.17
2019-05-03T12:00:26.836Z,7.50
2019-05-03T12:03:15.693Z,4.92
2019-05-03T12:05:48.668Z,5.92
2019-05-03T12:08:18.526Z,4.90
2019-05-03T12:10:57.285Z,5.28
2019-05-03T12:13:25.811Z,6.17
2019-05-03T12:15:55.654Z,7.58
2019-05-03T12:18:26.037Z,4.65
2019-05-03T12:20:57.825Z,6.70
2019-05-03T12:23:31.093Z,5.10
2019-05-03T12:25:59.505Z,6.72
2019-05-03T12:28:29.451Z,5.62
2019-05-03T12:30:59.091Z,7.53
2019-05-03T12:33:28.771Z,4.40
2019-05-03T12:35:58.435Z,5.17
2019-05-03T12:38:28.273Z,5.90
2019-05-03T12:40:57.819Z,6.53
2019-05-03T12:43:27.735Z,4.35
2019-05-03T12:45:57.228Z,8.20
2019-05-03T12:48:26.874Z,5.70
2019-05-03T12:50:56.732Z,5.47
2019-05-03T12:53:27.575Z,6.50
2019-05-03T12:55:57.148Z,7.50
2019-05-03T12:58:48.043Z,5.83
2019-05-03T13:01:40.669Z,5.90
2019-05-03T13:04:06.477Z,5.28
2019-05-03T13:06:39.244Z,8.25
2019-05-03T13:09:09.096Z,7.75
2019-05-03T13:11:51.749Z,8.15
2019-05-03T13:14:11.717Z,5.30
2019-05-03T13:16:41.737Z,7.42
2019-05-03T13:19:11.559Z,6.47
2019-05-03T13:21:41.039Z,4.83
2019-05-03T13:24:22.568Z,7.28
2019-05-03T13:26:42.112Z,6.78
2019-05-03T13:29:12.640Z,5.47
2019-05-03T13:31:55.808Z,6.37
2019-05-03T13:34:15.606Z,9.15
2019-05-03T13:36:45.685Z,4.78
2019-05-03T13:39:15.255Z,6.55
2019-05-03T13:41:45.593Z,6.58
2019-05-03T13:44:16.423Z,3.85
2019-05-03T13:46:46.413Z,4.75
2019-05-03T13:49:15.992Z,6.37
2019-05-03T13:51:45.590Z,7.35
2019-05-03T13:54:15.503Z,6.05
2019-05-03T13:56:45.073Z,5.20
2019-05-03T13:59:19.686Z,5.72
2019-05-03T14:01:46.488Z,4.70
2019-05-03T14:04:16.413Z,6.05
2019-05-03T14:06:45.974Z,7.37
2019-05-03T14:09:15.527Z,4.92
2019-05-03T14:11:45.109Z,5.35
2019-05-03T14:14:15.216Z,5.55
2019-05-03T14:16:45.347Z,5.25
2019-05-03T14:19:20.736Z,7.65
2019-05-03T14:21:54.631Z,5.92
2019-05-03T14:24:24.586Z,6.28
2019-05-03T14:26:55.158Z,5.62
2019-05-03T14:29:25.330Z,5.05
2019-05-03T14:31:55.140Z,4.25
2019-05-03T14:34:25.678Z,6.00
2019-05-03T14:36:55.637Z,5.83
2019-05-03T14:39:25.476Z,7.08
2019-05-03T14:41:55.644Z,5.90
2019-05-03T14:44:26.422Z,6.47
2019-05-03T14:46:59.078Z,6.53
2019-05-03T14:49:28.444Z,8.03
2019-05-03T14:51:58.186Z,7.45
2019-05-03T14:54:29.995Z,8.55
2019-05-03T14:57:17.371Z,5.50
2019-05-03T15:00:12.138Z,7.53
2019-05-03T15:03:07.998Z,7.92
2019-05-03T15:05:38.132Z,6.85
2019-05-03T15:08:07.618Z,5.58
2019-05-03T15:10:37.178Z,5.47
2019-05-03T15:13:07.167Z,5.10
2019-05-03T15:15:37.246Z,5.58
2019-05-03T15:18:06.897Z,8.35
2019-05-03T15:20:37.690Z,8.43
2019-05-03T15:23:07.284Z,7.65
2019-05-03T15:25:37.113Z,5.72
2019-05-03T15:28:07.343Z,6.65
2019-05-03T15:30:37.141Z,5.03
2019-05-03T15:33:06.724Z,5.58
2019-05-03T15:35:36.361Z,7.10
2019-05-03T15:38:05.952Z,6.83
2019-05-03T15:40:36.577Z,6.30
2019-05-03T15:43:31.612Z,4.85
2019-05-03T15:46:20.540Z,6.12
2019-05-03T15:48:55.099Z,5.75
2019-05-03T15:51:24.728Z,8.08
2019-05-03T15:53:55.146Z,6.50
2019-05-03T15:56:25.280Z,6.13
2019-05-03T15:58:55.287Z,8.10
2019-05-03T16:01:25.026Z,6.72
2019-05-03T16:03:55.584Z,7.93
2019-05-03T16:06:25.430Z,9.10
2019-05-03T16:08:55.385Z,7.33
2019-05-03T16:11:25.501Z,7.40
2019-05-03T16:13:55.601Z,8.40
2019-05-03T16:16:25.482Z,8.00
2019-05-03T16:18:54.951Z,8.40
2019-05-03T16:21:25.158Z,10.53
2019-05-03T16:23:55.591Z,7.50
2019-05-03T16:26:25.348Z,7.47
2019-05-03T16:29:01.304Z,6.77
2019-05-03T16:31:30.918Z,7.17
2019-05-03T16:34:00.502Z,6.07
2019-05-03T16:36:30.353Z,5.80
2019-05-03T16:38:59.929Z,8.60
2019-05-03T16:41:29.395Z,7.33
2019-05-03T16:43:59.502Z,6.60
2019-05-03T16:46:29.188Z,7.55
2019-05-03T16:48:58.708Z,6.03
2019-05-03T16:51:28.236Z,7.80
2019-05-03T16:53:57.723Z,6.17
2019-05-03T16:56:27.662Z,5.27
2019-05-03T16:58:57.218Z,5.80
2019-05-03T17:01:27.239Z,7.85
2019-05-03T17:04:02.253Z,7.57
2019-05-03T17:06:56.807Z,6.77
2019-05-03T17:09:42.557Z,5.90
2019-05-03T17:12:16.258Z,5.43
2019-05-03T17:14:46.672Z,6.83
2019-05-03T17:17:16.675Z,6.20
2019-05-03T17:19:46.148Z,6.57
2019-05-03T17:22:17.298Z,6.67
2019-05-03T17:24:46.976Z,7.83
2019-05-03T17:27:16.545Z,4.63
2019-05-03T17:29:46.100Z,7.60
2019-05-03T17:32:16.031Z,5.20
2019-05-03T17:34:45.586Z,8.13
2019-05-03T17:37:16.429Z,6.23
2019-05-03T17:40:05.385Z,6.90
2019-05-03T17:42:54.698Z,7.87
2019-05-03T17:45:29.741Z,6.80
2019-05-03T17:48:23.857Z,8.10
2019-05-03T17:50:56.307Z,8.97
2019-05-03T17:53:54.866Z,9.97
2019-05-03T17:56:44.572Z,5.70
2019-05-03T17:59:19.686Z,6.60
2019-05-03T18:02:07.022Z,6.10
2019-05-03T18:04:50.512Z,12.30
2019-05-03T18:07:42.183Z,7.10
2019-05-03T18:10:13.027Z,7.87
2019-05-03T18:12:43.065Z,7.80
2019-05-03T18:15:14.753Z,8.67
2019-05-03T18:17:44.514Z,8.23
2019-05-03T18:20:15.028Z,6.80
2019-05-03T18:22:45.018Z,6.90
2019-05-03T18:25:15.931Z,5.93
2019-05-03T18:27:45.540Z,7.50
2019-05-03T18:30:15.780Z,8.17
2019-05-03T18:32:45.647Z,6.77
2019-05-03T18:35:16.108Z,6.43
2019-05-03T18:37:47.438Z,4.97
2019-05-03T18:40:17.278Z,7.60
2019-05-03T18:42:52.239Z,8.80
2019-05-03T18:45:58.149Z,7.67
2019-05-03T18:48:27.783Z,5.57
2019-05-03T18:50:57.352Z,10.53
2019-05-03T18:53:27.308Z,7.87
2019-05-03T18:55:57.499Z,6.87
2019-05-03T18:58:27.285Z,11.30
2019-05-03T19:00:56.919Z,6.27
2019-05-03T19:03:26.480Z,7.83
2019-05-03T19:05:59.029Z,6.50
2019-05-03T19:09:00.739Z,8.60
2019-05-03T19:11:46.583Z,7.37
2019-05-03T19:14:17.627Z,8.43
2019-05-03T19:16:57.109Z,6.60
2019-05-03T19:19:30.729Z,9.10
2019-05-03T19:22:00.329Z,6.37
2019-05-03T19:24:30.391Z,7.13
2019-05-03T19:27:00.374Z,8.13
2019-05-03T19:29:30.680Z,7.50
2019-05-03T19:32:01.135Z,8.80
2019-05-03T19:34:44.133Z,7.93
2019-05-03T19:37:05.133Z,7.23
2019-05-03T19:39:35.352Z,8.57
2019-05-03T19:42:06.283Z,7.07
2019-05-03T19:44:37.171Z,10.33
2019-05-03T19:47:07.987Z,9.73
2019-05-03T19:49:39.558Z,10.63
2019-05-03T19:54:59.832Z,7.57
2019-05-03T19:57:34.958Z,10.47
2019-05-03T20:00:06.328Z,9.80
2019-05-03T20:02:45.535Z,7.93
2019-05-03T20:05:34.775Z,12.43
2019-05-03T20:08:15.434Z,10.27
2019-05-03T20:10:46.326Z,8.90
2019-05-03T20:13:15.901Z,10.20
2019-05-03T20:15:45.458Z,9.67
2019-05-03T20:18:18.057Z,9.27
2019-05-03T20:20:48.250Z,10.43
2019-05-03T20:23:18.945Z,11.83
2019-05-03T20:25:48.587Z,8.73
2019-05-03T20:28:18.256Z,11.17
2019-05-03T20:30:47.766Z,11.70
2019-05-03T20:33:17.301Z,9.57
2019-05-03T20:35:46.848Z,10.63
2019-05-03T20:38:16.786Z,10.50
2019-05-03T20:40:46.280Z,9.70
2019-05-03T20:43:31.431Z,10.33
2019-05-03T20:46:25.407Z,10.43
2019-05-03T20:49:15.092Z,10.60
2019-05-03T20:51:46.849Z,10.20
2019-05-03T20:54:16.686Z,10.27
2019-05-03T20:56:46.571Z,10.17
2019-05-03T20:59:21.956Z,11.13
2019-05-03T21:01:57.442Z,9.80
2019-05-03T21:04:41.491Z,9.70
2019-05-03T21:07:19.332Z,10.40
2019-05-03T21:09:56.938Z,9.43
2019-05-03T21:12:40.454Z,9.90
2019-05-03T21:15:47.427Z,9.13
2019-05-03T21:18:42.705Z,7.93
2019-05-03T21:21:50.534Z,7.63
2019-05-03T21:24:36.846Z,7.83
2019-05-03T21:27:16.347Z,8.47
2019-05-03T21:30:00.862Z,8.30
2019-05-03T21:32:42.146Z,8.53
2019-05-03T21:35:39.346Z,10.17
2019-05-03T21:38:21.381Z,7.93
2019-05-03T21:41:01.506Z,8.67
2019-05-03T21:43:40.994Z,8.43
2019-05-03T21:46:20.688Z,8.50
2019-05-03T21:49:14.950Z,7.90
2019-05-03T21:51:46.272Z,8.10
2019-05-03T21:54:26.008Z,9.97
2019-05-03T21:57:14.269Z,7.93
2019-05-03T21:59:54.985Z,8.23
2019-05-03T22:02:42.830Z,7.77
2019-05-03T22:05:26.475Z,6.70
2019-05-03T22:08:08.658Z,7.70
2019-05-03T22:10:57.827Z,10.63
2019-05-03T22:13:30.194Z,10.27
2019-05-03T22:16:24.615Z,9.70
2019-05-03T22:19:07.615Z,9.50
2019-05-03T22:21:55.412Z,9.10
2019-05-03T22:24:56.591Z,9.57
2019-05-03T22:27:32.144Z,10.93
2019-05-03T22:30:05.839Z,12.07
2019-05-03T22:32:46.407Z,11.70
2019-05-03T22:35:25.101Z,12.03
2019-05-03T22:38:03.984Z,12.27
2019-05-03T22:40:42.006Z,13.67
2019-05-03T22:43:28.300Z,10.87
2019-05-03T22:46:07.539Z,10.77
2019-05-03T22:49:15.595Z,10.67
2019-05-03T22:52:07.114Z,13.33
2019-05-03T22:54:46.742Z,11.47
2019-05-03T22:57:24.517Z,11.63
2019-05-03T22:59:59.691Z,13.03
2019-05-03T23:02:40.264Z,11.43
2019-05-03T23:05:15.698Z,13.93
2019-05-03T23:08:05.327Z,10.20
2019-05-03T23:10:37.543Z,10.90
2019-05-03T23:13:19.351Z,14.03
2019-05-03T23:15:57.506Z,11.67
2019-05-03T23:18:44.350Z,11.90
2019-05-03T23:21:24.418Z,12.27
2019-05-03T23:24:18.689Z,13.60
2019-05-03T23:27:02.089Z,13.63
2019-05-03T23:29:38.301Z,14.17
2019-05-03T23:32:24.615Z,13.23
2019-05-03T23:35:08.729Z,13.40
2019-05-03T23:37:51.107Z,12.73
2019-05-03T23:40:31.824Z,12.60
2019-05-03T23:43:10.830Z,14.87
2019-05-03T23:45:49.676Z,13.23
2019-05-03T23:48:25.065Z,12.50
2019-05-03T23:51:12.320Z,13.10
2019-05-03T23:53:45.723Z,8.20
2019-05-03T23:56:26.713Z,7.70
2019-05-03T23:59:02.676Z,9.53
